Terminal Aerodrome Forecast
Issued by NWS

Home | Current Version | Previous Version | Text Only | Print | Product List | Glossary On
Versions: 1 2 3 4 5 6 7 8 9 10 11 12 13 14 15 16 17
784
FTUS41 KBTV 182333
TAFMSS
TAF
KMSS 182333Z 1900/1924 22008KT P6SM FEW110
     FM191000 17008KT P6SM BKN200
     FM191900 19008KT P6SM VCSH BKN045
     FM192100 20006KT 6SM BR VCSH OVC025
     FM192300 21005KT 4SM -RA BR OVC015=

USA.gov is the U.S. government's official web portal to all federal, state and local government web resources and services.